Hollins College, Virginia
Current Conditions -  °F | °C
As of 10:54 AM on Thursday 27 Nov 2014 (Local Time) from KROA Reporting Station
Broken Clouds Broken Clouds  
Wind Chill:   Ceiling: 6500
Heat Index:   Visibility: 10mi
Dew Point: -2°   Wind: 8mph
Humidity: 60%   Direction: 270°W
Pressure: 30.08"   Gusts: NA
Location:  37.3533°N, 79.9353°W
Report Text: KROA 271554Z 27007KT 10SM FEW040 BKN065 06/M02 A3008 RMK AO2 SLP190 T00561017
Loading
Personal Weather Stations






























Interactive Weather Map New forecast layout! Learn more

10-Day Weather Forecast

Advertisements
Track Severe Weather on mobile